Latest Coastal Weather Observations for Maroochydore

IDQ60701

Issued at 10:12 am EST Thursday 29 January 2015 (issued every 10 minutes, with the page automatically refreshed every 10 minutes)

About coastal observations | Map of coastal stations | Coastal observations for QLD | Marine services | Other Formats
Station Details ID: 040861 Name: SUNSHINE COAST AIRPORT Lat: -26.60 Lon: 153.09 Height: 3.3 m
Data from the previous 72 hours. | See also: Recent months at Maroochydore
Date/Time
EST
Temp

°C
Wind Pressure Rain
since 9am
mm
Weather Cloud Vis
km
Sea
Height
m
Swell
Dir
 
Speed
knots
Gust
knots
hPa Trend Height
m
Period
s
Dir
29/10:00am 26.5 S 13 21 1008.7 - 0.0 - Partly cloudy 10 - - - -
29/09:30am 24.2 S 11 17 1008.9 - 0.0 - Partly cloudy 10 - - - -
29/09:00am 23.4 S 12 16 1008.4 - 3.0 - - 10 - - - -
29/08:30am 23.3 S 12 16 1008.5 - 3.0 - Partly cloudy 10 - - - -
29/08:00am 23.3 SSW 10 14 1008.3 - 3.0 - Partly cloudy 10 - - - -
29/07:30am 23.0 SSW 10 13 1008.3 - 3.0 - Partly cloudy 10 - - - -
29/07:00am 22.3 SSW 11 13 1008.0 - 3.0 - - 10 - - - -
29/06:30am 21.6 SSW 10 14 1007.6 - 3.0 - Partly cloudy 10 - - - -
29/06:00am 21.3 S 10 14 1007.1 - 3.0 - Cloudy 10 - - - -
29/05:30am 21.3 SSW 11 14 1007.0 - 3.0 - Partly cloudy 10 - - - -
29/05:00am 21.2 S 9 13 1006.7 - 3.0 - Partly cloudy 10 - - - -
29/04:30am 21.5 SSW 11 16 1006.5 - 3.0 - Partly cloudy 10 - - - -
29/04:00am 21.6 S 11 14 1006.2 - 3.0 - Partly cloudy 10 - - - -
29/03:30am 21.7 SSW 12 17 1006.4 - 3.0 - Partly cloudy 10 - - - -
29/03:00am 21.8 S 10 14 1006.2 - 3.0 - Cloudy 10 - - - -
29/02:30am 21.9 SSW 9 13 1006.5 - 3.0 - Partly cloudy 10 - - - -
29/02:00am 21.8 SSW 9 14 1006.4 - 3.0 - Partly cloudy 10 - - - -
29/01:30am 21.9 SSW 9 13 1006.7 - 3.0 - Partly cloudy 10 - - - -
29/01:00am 22.0 SSW 9 14 1006.9 - 3.0 - Partly cloudy 10 - - - -
29/12:30am 22.1 SSW 9 13 1006.9 - 3.0 - Partly cloudy 10 - - - -
 
Date/Time
EST
Temp

°C
Wind Pressure Rain
since 9am
mm
Weather Cloud Vis
km
Sea
Height
m
Swell
Dir
 
Speed
knots
Gust
knots
hPa Trend Height
m
Period
s
Dir
28/11:30pm 22.6 S 11 15 1007.4 - 3.0 - Partly cloudy 10 - - - -
28/11:00pm 22.7 S 14 19 1007.7 - 3.0 - Partly cloudy 10 - - - -
28/10:30pm 22.8 S 13 19 1007.7 - 3.0 - Partly cloudy 10 - - - -
28/10:00pm 23.0 S 11 15 1007.5 - 3.0 - Cloudy 10 - - - -
28/09:30pm 23.0 S 10 14 1007.4 - 3.0 - Partly cloudy 10 - - - -
28/09:00pm 23.1 S 9 11 1007.5 - 3.0 - Cloudy 10 - - - -
28/08:30pm 23.0 S 9 14 1007.2 - 3.0 - Partly cloudy 10 - - - -
28/08:00pm 23.3 S 13 19 1006.7 - 3.0 - Partly cloudy 10 - - - -
28/07:30pm 23.1 S 8 12 1006.7 - 3.0 - Partly cloudy 10 - - - -
28/07:00pm 23.2 S 12 19 1006.7 - 3.0 - Partly cloudy 10 - - - -
28/06:40pm 23.7 S 15 26 1006.7 - 2.8 - Partly cloudy 10 - - - -
28/06:30pm 23.4 S 9 15 1006.4 - 2.8 - Partly cloudy 10 - - - -
28/06:00pm 23.7 S 12 15 1006.0 - 2.8 - Cloudy 10 - - - -
28/05:30pm 24.0 S 13 18 1006.0 - 2.8 - Partly cloudy 10 - - - -
28/05:00pm 24.3 S 15 21 1005.4 - 2.8 - Partly cloudy 10 - - - -
28/04:30pm 24.9 SSE 17 23 1005.0 - 2.8 - Partly cloudy 10 - - - -
28/04:00pm 24.3 SSE 15 21 1005.1 - 2.8 - Partly cloudy 10 - - - -
28/03:30pm 24.0 SSE 12 18 1005.4 - 2.8 - Partly cloudy 10 - - - -
28/03:00pm 23.1 SSE 11 16 1005.5 - 2.8 - Cloudy 10 - - - -
28/02:30pm 22.8 S 10 14 1005.4 - 2.8 - Partly cloudy 10 - - - -
28/02:00pm 22.9 S 11 14 1005.3 - 2.6 - Partly cloudy 10 - - - -
28/01:30pm 22.8 S 9 12 1005.4 - 2.2 - Partly cloudy 10 - - - -
28/01:00pm 22.8 S 8 11 1005.7 - 2.0 - Partly cloudy 10 - - - -
28/12:30pm 22.5 S 9 13 1006.0 - 0.8 - Partly cloudy 10 - - - -
28/12:00pm 22.8 S 11 14 1006.1 - 0.0 - Cloudy 10 - - - -
28/11:30am 23.4 SSW 13 19 1006.4 - 0.0 - Partly cloudy 10 - - - -
28/11:00am 23.5 S 10 15 1006.2 - 0.0 - Partly cloudy 10 - - - -
28/10:30am 24.1 S 9 14 1006.3 - 0.0 - Partly cloudy 10 - - - -
28/10:00am 24.9 S 10 15 1006.3 - 0.0 - Partly cloudy 10 - - - -
28/09:30am 24.7 S 10 14 1005.8 - 0.0 - - 10 - - - -
28/09:00am 24.0 S 10 15 1005.9 - 1.4 - - 10 - - - -
28/08:30am 23.5 S 10 13 1005.6 - 1.4 - Partly cloudy 10 - - - -
28/08:00am 22.4 S 9 13 1005.7 - 1.4 - Partly cloudy 10 - - - -
28/07:30am 21.1 SSW 11 14 1005.5 - 1.4 - Partly cloudy 10 - - - -
28/07:00am 21.0 SSW 11 15 1005.6 - 1.2 - Partly cloudy 10 - - - -
28/06:30am 20.9 SSW 10 15 1005.3 - 1.2 - Partly cloudy 10 - - - -
28/06:00am 21.3 SSW 11 14 1004.8 - 1.2 - Cloudy 10 - - - -
28/05:30am 21.9 SSW 9 11 1004.7 - 1.0 - Partly cloudy 10 - - - -
28/05:00am 22.1 S 11 16 1004.6 - 1.0 - Partly cloudy 10 - - - -
28/04:30am 22.3 S 9 13 1004.7 - 1.0 - Partly cloudy 10 - - - -
28/04:00am 22.4 S 9 12 1004.5 - 1.0 - Partly cloudy 10 - - - -
28/03:30am 22.9 SSW 10 15 1004.3 - 1.0 - Partly cloudy 10 - - - -
28/03:00am 23.1 S 12 19 1004.4 - 1.0 - Cloudy 10 - - - -
28/02:50am 23.1 SSE 13 18 1004.4 - 1.0 - Partly cloudy 10 - - - -
28/02:40am 22.8 S 10 15 1004.6 - 1.0 - Partly cloudy 10 - - - -
28/02:30am 22.7 S 8 13 1004.7 - 1.0 - Partly cloudy 10 - - - -
28/02:00am 22.8 S 10 15 1005.2 - 1.0 - Partly cloudy 10 - - - -
28/01:30am 23.0 S 11 15 1005.6 - 0.8 - Partly cloudy 10 - - - -
28/01:00am 23.6 SSE 9 12 1005.9 - 0.4 - Partly cloudy 10 - - - -
28/12:30am 24.0 SSE 11 16 1006.2 - 0.2 - Partly cloudy 10 - - - -
28/12:00am 25.1 SE 11 17 1006.0 - 0.0 - Cloudy 10 - - - -
 
Date/Time
EST
Temp

°C
Wind Pressure Rain
since 9am
mm
Weather Cloud Vis
km
Sea
Height
m
Swell
Dir
 
Speed
knots
Gust
knots
hPa Trend Height
m
Period
s
Dir
27/11:30pm 25.5 SE 12 16 1006.2 - 0.0 - - 10 - - - -
27/11:00pm 25.6 SE 12 16 1006.4 - 0.0 - Partly cloudy 10 - - - -
27/10:30pm 25.7 ESE 12 15 1006.6 - 0.0 - Partly cloudy 10 - - - -
27/10:00pm 25.8 ESE 13 17 1006.7 - 0.0 - - 10 - - - -
27/09:30pm 25.8 SE 13 17 1006.7 - 0.0 - Partly cloudy 10 - - - -
27/09:00pm 26.0 ESE 12 17 1006.7 - 0.0 - Cloudy 10 - - - -
27/08:30pm 26.1 ESE 13 18 1006.4 - 0.0 - Partly cloudy 10 - - - -
27/08:00pm 26.2 ESE 13 17 1006.2 - 0.0 - Partly cloudy 10 - - - -
27/07:30pm 26.1 ESE 12 16 1005.8 - 0.0 - Partly cloudy 10 - - - -
27/07:00pm 26.3 E 13 17 1005.5 - 0.0 - Partly cloudy 10 - - - -
27/06:30pm 26.4 E 12 16 1005.3 - 0.0 - Partly cloudy 10 - - - -
27/06:00pm 26.6 E 11 17 1005.2 - 0.0 - Cloudy 10 - - - -
27/05:30pm 26.8 ESE 13 18 1004.7 - 0.0 - Partly cloudy 10 - - - -
27/05:00pm 27.2 ESE 14 18 1004.3 - 0.0 - Partly cloudy 10 - - - -
27/04:30pm 27.8 ESE 12 16 1004.5 - 0.0 - Partly cloudy 10 - - - -
27/04:00pm 27.6 ESE 12 17 1004.5 - 0.0 - Partly cloudy 10 - - - -
27/03:30pm 28.0 ESE 13 17 1004.7 - 0.0 - Cloudy 10 - - - -
27/03:00pm 28.3 ESE 13 18 1004.8 - 0.0 - Cloudy 10 - - - -
27/02:30pm 29.8 ESE 14 17 1005.2 - 0.0 - - 10 - - - -
27/02:00pm 29.3 ESE 12 17 1005.7 - 0.0 - Cloudy 10 - - - -
27/01:30pm 28.9 ESE 11 16 1006.2 - 0.0 - Partly cloudy 10 - - - -
27/01:00pm 28.6 E 8 13 1006.4 - 0.0 - Partly cloudy 10 - - - -
27/12:30pm 28.6 ESE 12 15 1006.5 - 0.0 - Partly cloudy 10 - - - -
27/12:00pm 30.5 SE 12 16 1006.9 - 0.0 - Cloudy 10 - - - -
27/11:30am 30.3 SE 13 16 1007.3 - 0.0 - - 10 - - - -
27/11:00am 29.6 SE 11 15 1007.6 - 0.0 - - 10 - - - -
27/10:30am 30.3 ESE 12 15 1007.9 - 0.0 - - 10 - - - -
27/10:00am 29.8 ESE 10 14 1008.0 - 0.0 - - 10 - - - -
27/09:30am 29.8 ESE 11 14 1007.8 - 0.0 - Partly cloudy 10 - - - -
27/09:00am 29.5 ESE 11 14 1007.5 - 0.0 - - 10 - - - -
27/08:30am 28.9 ESE 12 16 1007.2 - 0.0 - - 10 - - - -
27/08:00am 28.6 E 10 13 1007.2 - 0.0 - Partly cloudy 10 - - - -
27/07:30am 28.2 ESE 11 16 1007.1 - 0.0 - Partly cloudy 10 - - - -
27/07:00am 27.0 ESE 12 16 1007.0 - 0.0 - Partly cloudy 10 - - - -
27/06:30am 26.7 ESE 13 17 1007.0 - 0.0 - Partly cloudy 10 - - - -
27/06:00am 26.0 ESE 10 15 1006.8 - 0.0 - Cloudy 10 - - - -
27/05:30am 25.7 SE 10 14 1006.6 - 0.0 - Partly cloudy 10 - - - -
27/05:00am 26.0 ESE 8 11 1006.4 - 0.0 - - 10 - - - -
27/04:30am 26.1 ESE 7 10 1006.3 - 0.0 - Partly cloudy 10 - - - -
27/04:00am 26.1 ESE 9 13 1006.1 - 0.0 - Partly cloudy 10 - - - -
27/03:30am 26.1 ESE 9 13 1005.6 - 0.0 - Partly cloudy 10 - - - -
27/03:00am 26.3 ESE 11 14 1005.5 - 0.0 - Cloudy 10 - - - -
27/02:30am 26.1 SE 11 15 1005.7 - 0.0 - Partly cloudy 10 - - - -
27/02:00am 26.2 ESE 12 15 1005.7 - 0.0 - - 10 - - - -
27/01:30am 26.2 SE 11 15 1005.9 - 0.0 - Partly cloudy 10 - - - -
27/01:00am 26.2 SE 11 15 1006.2 - 0.0 - Partly cloudy 10 - - - -
27/12:30am 26.4 SE 11 14 1006.7 - 0.0 - Partly cloudy 10 - - - -
27/12:00am 26.3 SE 10 14 1007.4 - 0.0 - Cloudy 10 - - - -
 
Date/Time
EST
Temp

°C
Wind Pressure Rain
since 9am
mm
Weather Cloud Vis
km
Sea
Height
m
Swell
Dir
 
Speed
knots
Gust
knots
hPa Trend Height
m
Period
s
Dir
26/11:30pm 26.6 SE 10 13 1007.7 - 0.0 - Partly cloudy 10 - - - -
26/11:00pm 26.8 ESE 12 17 1007.7 - 0.0 - Partly cloudy 10 - - - -
26/10:56pm 26.7 ESE 12 17 1007.8 - 0.0 - Partly cloudy 10 - - - -
26/10:30pm 26.9 SE 11 16 1008.3 - 0.0 - Partly cloudy 10 - - - -
26/10:00pm 26.8 SSE 13 18 1008.2 - 0.0 - Partly cloudy 10 - - - -
26/09:58pm 26.8 SSE 13 18 1008.2 - 0.0 - Partly cloudy 10 - - - -
26/09:30pm 26.8 SSE 14 19 1007.9 - 0.0 - Partly cloudy 10 - - - -
26/09:00pm 26.8 SSE 17 22 1007.7 - 0.0 - Cloudy 10 - - - -
26/08:47pm 26.8 SSE 15 21 1007.7 - 0.0 - Partly cloudy 10 - - - -
26/08:30pm 27.1 SSE 15 20 1007.6 - 0.0 - Partly cloudy 10 - - - -
26/08:00pm 27.5 SE 11 14 1007.5 - 0.0 - Partly cloudy 10 - - - -
26/07:37pm 27.5 SE 9 13 1007.5 - 0.0 - Partly cloudy 10 - - - -
26/07:30pm 27.5 SE 9 11 1007.1 - 0.0 - Partly cloudy 10 - - - -
26/07:19pm 27.6 ESE 10 13 1006.7 - 0.0 - Partly cloudy 10 - - - -
26/07:00pm 27.8 ESE 8 11 1007.1 - 0.0 - Partly cloudy 10 - - - -
26/06:57pm 27.7 ESE 8 11 1007.4 - 0.0 - Partly cloudy 10 - - - -
26/06:30pm 27.8 ESE 10 13 1006.8 - 0.0 - Partly cloudy 10 - - - -
26/06:00pm 27.9 ESE 10 12 1006.6 - 0.0 - Cloudy 10 - - - -
26/05:30pm 28.0 SE 10 13 1006.2 - 0.0 - Partly cloudy 10 - - - -
26/05:00pm 28.1 ESE 11 14 1005.0 - 0.0 - Partly cloudy 10 - - - -
26/04:57pm 28.1 ESE 10 14 1005.0 - 0.0 - Partly cloudy 10 - - - -
26/04:30pm 28.4 SE 10 14 1005.0 - 0.0 - Partly cloudy 10 - - - -
26/04:00pm 28.4 SSE 10 14 1005.2 - 0.0 - Partly cloudy 10 - - - -
26/03:30pm 30.2 SE 10 13 1004.7 - 0.0 - Partly cloudy 10 - - - -
26/03:00pm 28.9 SE 11 14 1005.2 - 0.0 - Cloudy 10 - - - -
26/02:30pm 28.3 SE 11 14 1005.2 - 0.0 - Partly cloudy 10 - - - -
26/02:00pm 28.9 SE 11 14 1005.2 - 0.0 - Partly cloudy 10 - - - -
26/01:30pm 28.8 ESE 11 15 1005.1 - 0.0 - Partly cloudy 10 - - - -
26/01:10pm 29.2 SE 11 14 1005.4 - 0.0 - Partly cloudy 10 - - - -
26/01:00pm 29.1 ESE 11 13 1005.4 - 0.0 - Partly cloudy 10 - - - -
26/12:30pm 30.0 ESE 11 14 1005.9 - 0.0 - - 10 - - - -
26/12:00pm 31.4 ESE 11 15 1006.0 - 0.0 - - 10 - - - -
26/11:30am 31.0 ESE 11 14 1006.2 - 0.0 - - 10 - - - -
26/11:00am 31.2 ESE 9 12 1006.5 - 0.0 - - 10 - - - -
26/10:30am 30.4 ESE 10 12 1006.9 - 0.0 - - 10 - - - -

Other Formats:

Comma delimited format used in spreadsheet applications
http://www.bom.gov.au/fwo/IDQ60701/IDQ60701.94569.axf

JavaScript Object Notation format (JSON) in row-major order
http://www.bom.gov.au/fwo/IDQ60701/IDQ60701.94569.json